Time;durP1;ratioP1;P1;durP2;ratioP2;P2;SDS_P1;SDS_P2;PMS_P1;PMS_P2;Temp;Humidity;BMP_temperature;BMP_pressure;BME280_temperature;BME280_humidity;BME280_pressure;Samples;Min_cycle;Max_cycle;Signal;HPM_P1;HPM_P2
2022/08/17 00:01:09;;;;;;;16.27;14.17;;;23.00;99.60;;;;;;5012851;28;20471;-47
2022/08/17 00:03:37;;;;;;;14.30;12.80;;;23.00;99.70;;;;;;5012784;28;20805;-48
2022/08/17 00:06:11;;;;;;;15.30;13.70;;;23.00;99.80;;;;;;5013009;28;20429;-47
2022/08/17 00:08:43;;;;;;;15.17;13.47;;;23.00;99.90;;;;;;5012596;28;21060;-47
2022/08/17 00:11:13;;;;;;;14.33;12.93;;;23.00;99.90;;;;;;5012801;28;20524;-47
2022/08/17 00:13:43;;;;;;;15.50;14.00;;;22.90;99.90;;;;;;5012872;28;20433;-47
2022/08/17 00:16:13;;;;;;;16.77;14.03;;;22.90;99.90;;;;;;5012689;28;20800;-47
2022/08/17 00:18:40;;;;;;;15.07;13.77;;;22.90;99.90;;;;;;5012232;28;20449;-47
2022/08/17 00:21:09;;;;;;;19.17;14.30;;;22.90;99.90;;;;;;5012463;28;21000;-47
2022/08/17 00:23:36;;;;;;;13.80;12.30;;;22.90;99.90;;;;;;5012589;28;20559;-48
2022/08/17 00:26:03;;;;;;;16.30;14.80;;;22.90;99.90;;;;;;5012563;28;20441;-47
2022/08/17 00:28:31;;;;;;;16.67;12.40;;;22.90;99.90;;;;;;5011972;28;20476;-47
2022/08/17 00:30:58;;;;;;;15.07;12.93;;;23.10;99.90;;;;;;5012408;28;20453;-47
2022/08/17 00:33:28;;;;;;;15.13;13.63;;;23.00;99.90;;;;;;5011032;28;20454;-48
2022/08/17 00:35:55;;;;;;;14.93;13.53;;;22.80;99.90;;;;;;5011200;28;20455;-48
2022/08/17 00:38:23;;;;;;;14.70;13.10;;;22.80;99.90;;;;;;5012244;28;20444;-48
2022/08/17 00:40:53;;;;;;;14.00;12.80;;;22.80;99.90;;;;;;5012141;28;20475;-47
2022/08/17 00:43:22;;;;;;;14.10;12.70;;;22.70;99.90;;;;;;5012850;28;20436;-47
2022/08/17 00:45:50;;;;;;;14.77;13.30;;;22.70;99.90;;;;;;5012188;28;20440;-47
2022/08/17 00:48:17;;;;;;;15.47;13.37;;;22.70;99.90;;;;;;5011989;28;20574;-48
2022/08/17 00:50:53;;;;;;;15.77;14.20;;;22.70;99.90;;;;;;5011795;28;20453;-46
2022/08/17 00:53:20;;;;;;;15.20;13.33;;;22.70;99.90;;;;;;5012275;28;20448;-47
2022/08/17 00:55:47;;;;;;;14.33;12.87;;;22.60;99.90;;;;;;5012146;28;20433;-47
2022/08/17 00:58:14;;;;;;;15.87;14.50;;;22.60;99.90;;;;;;5012099;28;20459;-47
2022/08/17 01:00:45;;;;;;;15.37;12.83;;;22.60;99.90;;;;;;5011755;28;20457;-47
2022/08/17 01:03:18;;;;;;;15.50;14.07;;;22.60;99.90;;;;;;5012160;28;20923;-47
2022/08/17 01:05:47;;;;;;;16.00;14.50;;;22.60;99.90;;;;;;5012461;28;20426;-46
2022/08/17 01:08:18;;;;;;;14.50;13.17;;;22.20;99.90;;;;;;5012334;28;20470;-47
2022/08/17 01:10:47;;;;;;;15.33;13.77;;;22.50;99.90;;;;;;5011873;28;20479;-47
2022/08/17 01:13:15;;;;;;;16.17;14.60;;;22.50;99.90;;;;;;5012585;28;20955;-47
2022/08/17 01:15:49;;;;;;;15.67;14.17;;;22.50;99.90;;;;;;5018432;28;20516;-47
2022/08/17 01:18:17;;;;;;;15.40;13.80;;;22.50;99.90;;;;;;5018664;28;20433;-47
2022/08/17 01:20:49;;;;;;;15.53;14.13;;;22.50;99.90;;;;;;5018270;28;20558;-47
2022/08/17 01:23:20;;;;;;;15.83;14.27;;;22.50;99.90;;;;;;5018727;28;20438;-46
2022/08/17 01:25:49;;;;;;;16.93;14.20;;;22.40;99.90;;;;;;5018636;28;21007;-47
2022/08/17 01:28:15;;;;;;;16.30;14.17;;;22.40;99.90;;;;;;5018549;28;20478;-47
2022/08/17 01:30:42;;;;;;;15.80;14.40;;;22.40;99.90;;;;;;5018380;28;20455;-46
2022/08/17 01:33:10;;;;;;;16.53;14.90;;;22.40;99.90;;;;;;5018951;28;20536;-46
2022/08/17 01:35:36;;;;;;;16.77;15.37;;;22.40;99.90;;;;;;5019979;28;20440;-47
2022/08/17 01:38:04;;;;;;;15.13;13.53;;;22.30;99.90;;;;;;5020766;28;20444;-47
2022/08/17 01:40:36;;;;;;;13.63;12.33;;;22.30;99.90;;;;;;5019246;28;20501;-47
2022/08/17 01:43:08;;;;;;;15.30;13.80;;;22.30;99.90;;;;;;5019685;28;20460;-46
2022/08/17 01:45:41;;;;;;;15.90;14.33;;;22.30;99.90;;;;;;5019156;28;20457;-48
2022/08/17 01:48:08;;;;;;;15.97;14.67;;;22.30;99.90;;;;;;5019938;28;20964;-47
2022/08/17 01:50:37;;;;;;;14.77;13.50;;;22.20;99.90;;;;;;5021701;28;20456;-46
2022/08/17 01:53:07;;;;;;;17.13;14.20;;;22.20;99.90;;;;;;5019899;28;20440;-46
2022/08/17 01:55:40;;;;;;;15.90;14.00;;;22.20;99.90;;;;;;5019081;28;20439;-46
2022/08/17 01:58:08;;;;;;;16.23;14.73;;;22.20;99.90;;;;;;5019384;28;20443;-47
2022/08/17 02:00:36;;;;;;;16.13;14.60;;;22.10;99.90;;;;;;5018206;28;20565;-46
2022/08/17 02:03:03;;;;;;;16.13;14.73;;;22.10;99.90;;;;;;5018735;28;20444;-48
2022/08/17 02:05:29;;;;;;;15.50;14.20;;;22.10;99.90;;;;;;5018662;28;20854;-47
2022/08/17 02:07:56;;;;;;;16.10;14.63;;;22.10;99.90;;;;;;5018631;28;20491;-46
2022/08/17 02:10:23;;;;;;;16.90;14.80;;;22.00;99.90;;;;;;5016917;28;20681;-46
2022/08/17 02:12:51;;;;;;;15.00;13.50;;;22.00;99.90;;;;;;5019012;28;20441;-46
2022/08/17 02:15:19;;;;;;;15.23;13.70;;;21.90;99.90;;;;;;5018224;28;20501;-46
2022/08/17 02:17:46;;;;;;;15.67;14.17;;;21.90;99.90;;;;;;5018085;28;20440;-46
2022/08/17 02:20:14;;;;;;;15.60;14.30;;;22.30;99.90;;;;;;5017506;28;20471;-47
2022/08/17 02:22:44;;;;;;;13.17;11.97;;;21.90;99.90;;;;;;5018000;28;20641;-46
2022/08/17 02:25:12;;;;;;;15.27;13.70;;;22.10;99.90;;;;;;5016478;28;20434;-47
2022/08/17 02:27:39;;;;;;;15.50;14.10;;;21.90;99.90;;;;;;5014302;28;20816;-46
2022/08/17 02:30:11;;;;;;;16.43;14.63;;;22.00;99.90;;;;;;5014340;28;20870;-46
2022/08/17 02:32:38;;;;;;;14.90;13.60;;;21.70;99.90;;;;;;5014706;28;20435;-47
2022/08/17 02:35:06;;;;;;;15.87;14.47;;;22.40;99.90;;;;;;5014662;28;20432;-47
2022/08/17 02:37:33;;;;;;;16.33;14.93;;;22.00;99.90;;;;;;5014466;28;20431;-46
2022/08/17 02:39:59;;;;;;;15.10;13.50;;;21.80;99.90;;;;;;5014327;28;20848;-47
2022/08/17 02:42:28;;;;;;;15.63;14.23;;;22.00;99.90;;;;;;5014413;28;20481;-47
2022/08/17 02:44:55;;;;;;;16.20;14.33;;;22.00;99.90;;;;;;5014329;28;20829;-47
2022/08/17 02:47:23;;;;;;;16.87;15.13;;;21.60;99.90;;;;;;5014229;28;20450;-47
2022/08/17 02:49:50;;;;;;;18.87;13.03;;;21.80;99.90;;;;;;5013907;28;20961;-46
2022/08/17 02:52:16;;;;;;;20.50;15.20;;;21.80;99.90;;;;;;5014231;28;20439;-46
2022/08/17 02:54:43;;;;;;;23.23;16.80;;;21.70;99.90;;;;;;5014172;28;20903;-46
2022/08/17 02:57:10;;;;;;;14.60;13.30;;;21.70;99.90;;;;;;5014013;28;20570;-47
2022/08/17 02:59:37;;;;;;;17.17;15.53;;;21.70;99.90;;;;;;5013702;28;20459;-46
2022/08/17 03:02:05;;;;;;;16.63;15.23;;;21.70;99.90;;;;;;5014053;28;20446;-46
2022/08/17 03:04:33;;;;;;;17.17;15.57;;;21.70;99.90;;;;;;5014147;28;20435;-47
2022/08/17 03:07:00;;;;;;;19.07;16.23;;;21.70;99.90;;;;;;5014032;28;20439;-47
2022/08/17 03:09:27;;;;;;;19.27;16.47;;;21.70;99.90;;;;;;5013332;28;20988;-46
2022/08/17 03:11:53;;;;;;;19.17;17.30;;;21.60;99.90;;;;;;5013955;28;20943;-46
2022/08/17 03:14:20;;;;;;;16.80;15.10;;;21.60;99.90;;;;;;5013870;28;21001;-47
2022/08/17 03:16:46;;;;;;;21.77;15.93;;;21.60;99.90;;;;;;5013573;28;20443;-48
2022/08/17 03:19:13;;;;;;;18.37;15.87;;;21.60;99.90;;;;;;5013141;28;20445;-47
2022/08/17 03:21:41;;;;;;;19.90;17.97;;;21.60;99.90;;;;;;5013986;28;20439;-46
2022/08/17 03:24:08;;;;;;;18.40;16.80;;;21.50;99.90;;;;;;5012330;28;20529;-47
2022/08/17 03:26:34;;;;;;;26.83;16.37;;;21.50;99.90;;;;;;5013333;28;20471;-47
2022/08/17 03:29:01;;;;;;;18.00;16.10;;;21.50;99.90;;;;;;5012855;28;20483;-47
2022/08/17 03:31:27;;;;;;;19.67;17.53;;;21.50;99.90;;;;;;5013376;28;20451;-47
2022/08/17 03:33:55;;;;;;;18.77;17.10;;;21.50;99.90;;;;;;5013513;28;20498;-47
2022/08/17 03:36:21;;;;;;;17.50;15.90;;;21.50;99.90;;;;;;5013213;28;20491;-47
2022/08/17 03:38:49;;;;;;;17.77;15.97;;;21.40;99.90;;;;;;5012943;28;20444;-47
2022/08/17 03:41:16;;;;;;;16.03;14.60;;;21.50;99.90;;;;;;5013365;28;20458;-47
2022/08/17 03:43:42;;;;;;;17.60;15.73;;;21.40;99.90;;;;;;5013150;28;20941;-46
2022/08/17 03:57:09;;;;;;;18.10;16.30;;;21.40;99.90;;;;;;5013067;28;20525;-47
2022/08/17 03:59:37;;;;;;;20.90;16.27;;;21.30;99.90;;;;;;5012437;28;20879;-47
2022/08/17 04:02:07;;;;;;;19.47;17.40;;;21.40;99.90;;;;;;5012957;28;20438;-47
2022/08/17 04:04:35;;;;;;;20.80;18.10;;;21.40;99.90;;;;;;5013001;28;20946;-47
2022/08/17 04:07:01;;;;;;;18.10;16.40;;;21.10;99.90;;;;;;5012931;28;20436;-48
2022/08/17 04:09:29;;;;;;;19.83;17.77;;;21.50;99.90;;;;;;5012125;28;20988;-46
2022/08/17 04:11:56;;;;;;;18.60;16.90;;;21.50;99.90;;;;;;5012896;28;20854;-46
2022/08/17 04:14:23;;;;;;;18.23;16.43;;;21.40;99.90;;;;;;5012769;28;20493;-47
2022/08/17 04:16:50;;;;;;;20.00;17.90;;;21.00;99.90;;;;;;5012600;28;20435;-47
2022/08/17 04:19:16;;;;;;;18.17;16.57;;;21.40;99.90;;;;;;5012507;28;20454;-47
2022/08/17 04:21:43;;;;;;;19.30;17.33;;;21.50;99.90;;;;;;5012759;28;20423;-47
2022/08/17 04:24:10;;;;;;;19.50;17.70;;;21.40;99.90;;;;;;5012470;28;20435;-47
2022/08/17 04:26:38;;;;;;;18.57;16.67;;;21.40;99.90;;;;;;5012533;28;20439;-47
2022/08/17 04:29:04;;;;;;;18.80;16.90;;;21.50;99.90;;;;;;5012210;28;21030;-47
2022/08/17 04:31:32;;;;;;;20.93;18.83;;;21.50;99.90;;;;;;5012303;28;20999;-47
2022/08/17 04:33:58;;;;;;;17.90;16.20;;;21.50;99.90;;;;;;5012542;28;20932;-47
2022/08/17 04:36:25;;;;;;;22.57;17.57;;;21.60;99.90;;;;;;5012247;28;20461;-47
2022/08/17 04:38:52;;;;;;;19.87;17.23;;;21.60;99.90;;;;;;5011858;28;20440;-47
2022/08/17 04:44:05;;;;;;;22.03;17.73;;;21.70;99.90;;;;;;5012343;28;20433;-48
2022/08/17 04:46:33;;;;;;;21.10;18.80;;;21.70;99.90;;;;;;5012216;28;20444;-48
2022/08/17 04:49:03;;;;;;;24.30;18.13;;;21.80;99.90;;;;;;5010826;28;20658;-48
2022/08/17 04:51:33;;;;;;;25.43;18.63;;;21.80;99.90;;;;;;5010755;28;20455;-48
2022/08/17 04:54:03;;;;;;;21.00;18.80;;;21.90;99.90;;;;;;5010696;28;20473;-48
2022/08/17 04:56:31;;;;;;;22.07;19.67;;;22.00;99.90;;;;;;5011849;28;20440;-47
2022/08/17 04:58:59;;;;;;;25.73;19.50;;;22.00;99.90;;;;;;5011290;28;20929;-47
2022/08/17 05:01:29;;;;;;;26.73;21.00;;;22.10;99.90;;;;;;5011709;28;20810;-47
2022/08/17 05:03:58;;;;;;;24.27;21.20;;;22.20;99.90;;;;;;5011658;28;20471;-47
2022/08/17 05:06:26;;;;;;;28.33;19.97;;;22.10;99.90;;;;;;5011592;28;20443;-49
2022/08/17 05:08:53;;;;;;;19.27;17.33;;;22.40;99.90;;;;;;5011149;28;20484;-48
2022/08/17 05:11:21;;;;;;;20.57;18.30;;;22.40;99.90;;;;;;5011122;28;20448;-48
2022/08/17 05:13:49;;;;;;;27.93;18.03;;;22.60;99.90;;;;;;5011639;28;20447;-47
2022/08/17 05:16:16;;;;;;;22.80;18.70;;;22.70;99.90;;;;;;5011363;28;20815;-49
2022/08/17 05:18:44;;;;;;;22.00;18.03;;;22.80;99.90;;;;;;5011108;28;20441;-48
2022/08/17 05:21:11;;;;;;;20.70;16.87;;;22.90;99.90;;;;;;5011300;28;20557;-48
2022/08/17 05:23:39;;;;;;;22.67;17.90;;;23.00;99.90;;;;;;5011571;28;20464;-48
2022/08/17 05:26:06;;;;;;;20.80;16.97;;;23.10;99.90;;;;;;5011425;28;20503;-49
2022/08/17 05:28:34;;;;;;;21.67;17.60;;;23.30;99.90;;;;;;5011048;28;20489;-47
2022/08/17 05:31:02;;;;;;;19.77;16.87;;;23.30;99.90;;;;;;5011174;28;20451;-47
2022/08/17 05:33:31;;;;;;;23.33;17.30;;;23.40;99.90;;;;;;5009837;28;20461;-48
2022/08/17 05:36:00;;;;;;;20.33;16.13;;;23.40;99.90;;;;;;5011714;28;20800;-48
2022/08/17 05:38:29;;;;;;;18.90;15.47;;;23.20;99.90;;;;;;5011468;28;20854;-47
2022/08/17 05:40:57;;;;;;;16.67;15.07;;;23.50;99.90;;;;;;5011479;28;20463;-48
2022/08/17 05:43:26;;;;;;;20.17;16.87;;;23.50;99.90;;;;;;5011571;28;20449;-48
2022/08/17 05:46:01;;;;;;;23.60;16.17;;;23.70;99.90;;;;;;5010962;28;20947;-48
2022/08/17 05:48:33;;;;;;;18.33;16.00;;;23.80;99.90;;;;;;5010943;28;20512;-48
2022/08/17 05:51:20;;;;;;;25.27;15.20;;;23.90;99.90;;;;;;5011137;28;20475;-46
2022/08/17 05:53:56;;;;;;;16.87;14.87;;;24.10;99.90;;;;;;5011093;28;20435;-47
2022/08/17 05:56:33;;;;;;;18.87;16.83;;;24.20;99.90;;;;;;5011041;28;20447;-47
2022/08/17 05:59:08;;;;;;;17.60;15.10;;;24.30;99.90;;;;;;5010833;28;20513;-47
2022/08/17 06:01:41;;;;;;;22.80;16.27;;;24.40;99.90;;;;;;5015001;28;20550;-48
2022/08/17 06:04:18;;;;;;;18.53;15.13;;;24.50;99.60;;;;;;5015293;28;20436;-47
2022/08/17 06:06:54;;;;;;;25.90;15.97;;;24.60;99.30;;;;;;5015106;28;20502;-49
2022/08/17 06:09:36;;;;;;;19.70;15.77;;;24.70;99.00;;;;;;5014662;28;20494;-48
2022/08/17 06:12:25;;;;;;;18.33;13.97;;;24.80;98.90;;;;;;5014878;28;20435;-48
2022/08/17 06:15:03;;;;;;;18.30;14.63;;;24.90;98.30;;;;;;5013963;28;20444;-48
2022/08/17 06:17:31;;;;;;;19.57;15.27;;;24.90;97.90;;;;;;5015376;28;20530;-47
2022/08/17 06:19:59;;;;;;;21.03;13.67;;;25.00;97.50;;;;;;5014153;28;20471;-47
2022/08/17 06:22:32;;;;;;;16.80;12.20;;;25.10;97.00;;;;;;5014505;28;20463;-47
2022/08/17 06:25:03;;;;;;;21.13;14.37;;;25.20;96.60;;;;;;5014575;28;20489;-48
2022/08/17 06:27:35;;;;;;;25.83;14.57;;;25.30;96.50;;;;;;5012920;28;21082;-48
2022/08/17 06:30:08;;;;;;;17.00;12.03;;;25.40;96.30;;;;;;5013712;28;20519;-47
2022/08/17 06:32:35;;;;;;;17.30;11.80;;;25.50;96.00;;;;;;5014227;28;20432;-47
2022/08/17 06:35:03;;;;;;;12.87;11.13;;;25.50;95.90;;;;;;5014382;28;20943;-47
2022/08/17 06:37:48;;;;;;;17.37;11.67;;;25.60;95.70;;;;;;5014299;28;20437;-47
2022/08/17 06:40:25;;;;;;;16.87;10.90;;;25.70;95.20;;;;;;5013706;28;20452;-47
2022/08/17 06:43:01;;;;;;;22.03;12.63;;;25.80;95.20;;;;;;5014632;28;20942;-48
2022/08/17 06:45:31;;;;;;;20.67;11.70;;;25.70;94.90;;;;;;5013649;28;20809;-47
2022/08/17 06:48:06;;;;;;;13.40;11.67;;;25.90;94.90;;;;;;5013875;28;20444;-48
2022/08/17 06:50:35;;;;;;;13.73;12.07;;;25.90;94.70;;;;;;5013161;28;20483;-48
2022/08/17 06:53:16;;;;;;;14.47;11.97;;;26.00;94.60;;;;;;5014228;28;20437;-47
2022/08/17 06:55:48;;;;;;;15.33;11.53;;;26.10;94.20;;;;;;5013499;28;20904;-47
2022/08/17 06:58:19;;;;;;;13.70;11.93;;;26.20;94.20;;;;;;5013343;28;20536;-49
2022/08/17 07:00:49;;;;;;;19.50;10.90;;;26.20;94.00;;;;;;5013512;28;20536;-47
2022/08/17 07:03:26;;;;;;;14.47;11.57;;;26.30;93.60;;;;;;5013526;28;20446;-48
2022/08/17 07:05:57;;;;;;;14.07;11.07;;;26.40;93.20;;;;;;5013088;28;20436;-47
2022/08/17 07:08:32;;;;;;;14.40;9.80;;;26.40;93.00;;;;;;5013354;28;20432;-48
2022/08/17 07:11:03;;;;;;;11.97;10.73;;;26.50;92.80;;;;;;5011720;28;20487;-47
2022/08/17 07:13:42;;;;;;;11.60;10.40;;;26.50;92.50;;;;;;5012988;28;20439;-48
2022/08/17 07:16:18;;;;;;;17.57;11.00;;;26.60;92.20;;;;;;5013866;28;20519;-48
2022/08/17 07:18:46;;;;;;;19.17;11.83;;;26.70;91.90;;;;;;5013188;28;20498;-48
2022/08/17 07:21:27;;;;;;;16.70;10.60;;;26.80;91.60;;;;;;5012980;28;21012;-48
2022/08/17 07:24:08;;;;;;;14.43;9.50;;;26.80;91.20;;;;;;5013146;28;20937;-48
2022/08/17 07:26:35;;;;;;;10.53;9.23;;;26.90;90.80;;;;;;5013313;28;20421;-47
2022/08/17 07:29:02;;;;;;;15.07;10.90;;;26.90;90.70;;;;;;5012518;28;20452;-48
2022/08/17 07:31:31;;;;;;;16.40;11.37;;;27.00;90.40;;;;;;5013118;28;20897;-48
2022/08/17 07:34:02;;;;;;;15.50;8.80;;;27.00;90.20;;;;;;5011786;28;20597;-48
2022/08/17 07:36:32;;;;;;;9.13;7.63;;;26.90;89.20;;;;;;5013082;28;20770;-47
2022/08/17 07:39:02;;;;;;;13.93;7.83;;;27.10;87.70;;;;;;5012749;28;20517;-48
2022/08/17 07:41:31;;;;;;;14.33;9.50;;;27.20;86.90;;;;;;5011144;28;20459;-48
2022/08/17 07:43:58;;;;;;;10.80;7.50;;;27.10;86.20;;;;;;5012851;28;20443;-47
2022/08/17 07:49:23;;;;;;;12.87;8.13;;;27.30;84.40;;;;;;5012657;28;20482;-48
2022/08/17 07:51:59;;;;;;;10.73;7.83;;;27.20;84.40;;;;;;5011637;28;20448;-47
2022/08/17 07:54:31;;;;;;;12.47;7.30;;;27.40;83.50;;;;;;5012458;28;20929;-47
2022/08/17 07:56:59;;;;;;;15.27;8.80;;;27.40;82.80;;;;;;5013173;28;20435;-48
2022/08/17 07:59:28;;;;;;;9.27;6.97;;;27.50;82.70;;;;;;5012045;28;20493;-47
2022/08/17 08:02:15;;;;;;;13.20;8.47;;;27.50;82.10;;;;;;5010923;28;20456;-47
2022/08/17 08:04:45;;;;;;;10.70;8.03;;;27.60;81.50;;;;;;5013244;28;20438;-48
2022/08/17 08:07:23;;;;;;;10.47;6.90;;;27.60;81.10;;;;;;5012689;28;20799;-49
2022/08/17 08:10:04;;;;;;;9.10;8.13;;;27.60;80.40;;;;;;5012106;28;20571;-49
2022/08/17 08:12:35;;;;;;;12.10;7.07;;;27.70;80.00;;;;;;5012999;28;20444;-48
2022/08/17 08:15:09;;;;;;;13.07;6.40;;;27.70;79.70;;;;;;5014038;28;20928;-47
2022/08/17 08:17:46;;;;;;;8.90;5.73;;;27.80;78.20;;;;;;5013962;28;20428;-49
2022/08/17 08:20:13;;;;;;;8.43;5.80;;;27.80;76.90;;;;;;5012755;28;20470;-47
2022/08/17 08:22:51;;;;;;;11.50;6.03;;;27.90;77.10;;;;;;5013549;28;20438;-48
2022/08/17 08:25:31;;;;;;;6.77;5.60;;;27.90;76.40;;;;;;5013901;28;20716;-46
2022/08/17 08:28:09;;;;;;;9.93;6.83;;;27.90;76.00;;;;;;5013295;28;20536;-49
2022/08/17 08:30:42;;;;;;;10.60;6.47;;;27.90;75.20;;;;;;5012727;28;20515;-46
2022/08/17 08:33:23;;;;;;;7.93;6.47;;;28.00;75.20;;;;;;5012409;28;20444;-47
2022/08/17 08:35:53;;;;;;;9.90;6.53;;;28.00;74.90;;;;;;5012312;28;20447;-48
2022/08/17 08:38:34;;;;;;;8.20;7.40;;;28.00;75.10;;;;;;5012677;28;20466;-48
2022/08/17 08:41:22;;;;;;;7.00;6.30;;;28.10;75.00;;;;;;5012718;28;20452;-48
2022/08/17 08:43:59;;;;;;;9.03;6.63;;;28.20;73.90;;;;;;5012233;28;20470;-48
2022/08/17 08:46:34;;;;;;;9.30;6.53;;;28.20;73.50;;;;;;5012155;28;20443;-48
2022/08/17 08:49:34;;;;;;;8.80;6.60;;;28.30;73.80;;;;;;5011670;28;20450;-49
2022/08/17 08:52:03;;;;;;;15.87;7.73;;;28.30;72.90;;;;;;5006541;28;20929;-50
2022/08/17 08:54:38;;;;;;;9.00;6.70;;;28.30;73.20;;;;;;5012248;28;20447;-45
2022/08/17 08:57:17;;;;;;;6.27;5.47;;;28.40;72.30;;;;;;5011339;28;20428;-47
2022/08/17 09:00:09;;;;;;;6.73;5.13;;;28.40;70.40;;;;;;5011159;28;20471;-48
2022/08/17 09:03:19;;;;;;;5.60;4.63;;;28.40;70.70;;;;;;5011761;28;20467;-48
2022/08/17 09:06:07;;;;;;;7.37;5.40;;;28.50;69.40;;;;;;5010304;28;20448;-49
2022/08/17 09:08:51;;;;;;;4.83;4.27;;;28.50;69.10;;;;;;5011448;28;20523;-47
2022/08/17 09:11:24;;;;;;;5.47;4.37;;;28.50;68.60;;;;;;5009836;28;20992;-48
2022/08/17 09:14:01;;;;;;;12.40;5.13;;;28.50;68.20;;;;;;5011363;28;20846;-48
2022/08/17 09:16:34;;;;;;;6.10;4.80;;;28.50;67.90;;;;;;5011489;28;20436;-47
2022/08/17 09:19:09;;;;;;;6.50;5.20;;;28.50;67.90;;;;;;5010721;28;20530;-48
2022/08/17 09:21:41;;;;;;;7.67;5.00;;;28.60;68.40;;;;;;5011501;28;20860;-48
2022/08/17 09:24:14;;;;;;;6.13;5.30;;;28.60;68.60;;;;;;5011540;28;20435;-48
2022/08/17 09:26:47;;;;;;;7.03;5.10;;;28.60;68.50;;;;;;5011465;28;20815;-48
2022/08/17 09:29:23;;;;;;;8.60;5.10;;;28.70;68.20;;;;;;5011376;28;20429;-49
2022/08/17 09:31:54;;;;;;;4.90;4.27;;;28.70;66.50;;;;;;5010782;28;20760;-47
2022/08/17 09:34:28;;;;;;;5.50;4.90;;;28.70;64.90;;;;;;5011232;28;20507;-48
2022/08/17 09:37:05;;;;;;;6.60;4.80;;;28.80;64.90;;;;;;5015153;28;20444;-49
2022/08/17 09:39:38;;;;;;;5.30;4.80;;;28.80;64.40;;;;;;5014995;28;20455;-49
2022/08/17 09:42:10;;;;;;;6.27;4.50;;;28.80;64.30;;;;;;5013596;28;20448;-47
2022/08/17 09:44:42;;;;;;;4.53;4.13;;;28.80;64.20;;;;;;5015068;28;20526;-47
2022/08/17 09:47:16;;;;;;;7.50;4.63;;;28.80;64.10;;;;;;5015268;28;20965;-49
2022/08/17 09:49:49;;;;;;;6.80;3.80;;;28.90;63.20;;;;;;5014718;28;20546;-47
2022/08/17 09:52:20;;;;;;;7.27;3.83;;;28.80;61.90;;;;;;5014871;28;20432;-47
2022/08/17 09:54:50;;;;;;;3.93;3.63;;;29.00;61.60;;;;;;5014784;28;20929;-47
2022/08/17 09:57:32;;;;;;;4.40;4.00;;;29.00;61.40;;;;;;5014713;28;20428;-47
2022/08/17 10:00:17;;;;;;;7.37;5.10;;;29.20;61.20;;;;;;5014388;28;20456;-47
2022/08/17 10:03:27;;;;;;;5.17;4.30;;;29.30;60.10;;;;;;5014637;28;20479;-48
2022/08/17 10:05:59;;;;;;;5.90;4.23;;;29.30;59.50;;;;;;5014537;28;20539;-49
2022/08/17 10:08:34;;;;;;;7.27;4.10;;;29.40;60.50;;;;;;5014699;28;20439;-49
2022/08/17 10:11:11;;;;;;;3.60;3.30;;;29.50;59.80;;;;;;5014522;28;20502;-48
2022/08/17 10:13:44;;;;;;;7.70;4.17;;;29.60;60.00;;;;;;5014725;28;20439;-47
2022/08/17 10:16:21;;;;;;;4.80;3.80;;;29.80;59.40;;;;;;5014502;28;20444;-49
2022/08/17 10:19:00;;;;;;;6.17;3.80;;;29.90;59.30;;;;;;5014002;28;20432;-48
2022/08/17 10:27:08;;;;;;;5.97;4.00;;;30.00;58.20;;;;;;5014093;28;20439;-50
2022/08/17 10:29:42;;;;;;;4.80;3.77;;;30.20;58.10;;;;;;5014517;28;20943;-50
2022/08/17 10:32:14;;;;;;;4.20;3.23;;;30.20;57.10;;;;;;5014887;28;20471;-49
2022/08/17 10:34:53;;;;;;;4.60;3.53;;;30.20;56.90;;;;;;5014806;28;20443;-48
2022/08/17 10:37:53;;;;;;;4.00;3.60;;;30.20;56.60;;;;;;5015030;28;20559;-49
2022/08/17 10:40:31;;;;;;;5.40;3.87;;;30.30;56.60;;;;;;5014089;28;20953;-48
2022/08/17 10:43:03;;;;;;;5.00;4.27;;;30.30;56.00;;;;;;5014388;28;20436;-49
2022/08/17 10:45:37;;;;;;;4.57;3.30;;;30.30;55.60;;;;;;5014709;28;20432;-50
2022/08/17 10:48:28;;;;;;;4.20;3.80;;;30.30;55.10;;;;;;5013260;28;20458;-48
2022/08/17 10:51:06;;;;;;;3.73;3.40;;;30.30;55.40;;;;;;5014333;28;20961;-48
2022/08/17 10:53:53;;;;;;;7.10;3.70;;;30.30;55.90;;;;;;5014488;28;20471;-49
2022/08/17 10:56:23;;;;;;;7.27;4.00;;;30.30;55.90;;;;;;5012421;28;20453;-49
2022/08/17 10:58:53;;;;;;;4.30;3.87;;;30.30;55.90;;;;;;5013739;28;20519;-49
2022/08/17 11:01:42;;;;;;;4.73;4.00;;;30.40;55.80;;;;;;5013842;28;20487;-49
2022/08/17 11:04:26;;;;;;;5.80;4.00;;;30.40;55.60;;;;;;5014166;28;20441;-50
2022/08/17 11:07:03;;;;;;;4.97;3.90;;;30.50;55.30;;;;;;5014347;28;20503;-49
2022/08/17 11:09:43;;;;;;;3.57;3.27;;;30.50;55.20;;;;;;5014053;28;20435;-49
2022/08/17 11:12:19;;;;;;;4.20;3.80;;;30.50;55.30;;;;;;5013444;28;20491;-49
2022/08/17 11:15:03;;;;;;;5.13;4.30;;;30.70;54.80;;;;;;5013957;28;20941;-50
2022/08/17 11:17:51;;;;;;;19.10;4.60;;;30.70;54.30;;;;;;5014013;28;20445;-48
2022/08/17 11:20:53;;;;;;;6.57;4.93;;;30.70;54.50;;;;;;5013169;28;20483;-50
2022/08/17 11:23:38;;;;;;;5.60;4.33;;;30.80;54.20;;;;;;5013501;28;20440;-48
2022/08/17 11:26:24;;;;;;;6.20;3.80;;;30.90;54.30;;;;;;5013702;28;20456;-48
2022/08/17 11:28:57;;;;;;;4.50;4.17;;;30.90;54.00;;;;;;5013229;28;20441;-49
2022/08/17 11:31:30;;;;;;;4.50;4.00;;;30.80;54.10;;;;;;5013395;28;20503;-49
2022/08/17 11:34:01;;;;;;;4.53;4.23;;;30.80;53.90;;;;;;5013392;28;20468;-51
2022/08/17 11:36:52;;;;;;;8.63;7.73;;;30.70;53.70;;;;;;5013249;28;20487;-49
2022/08/17 11:39:33;;;;;;;5.33;4.63;;;30.80;53.80;;;;;;5013139;28;20447;-49
2022/08/17 11:42:04;;;;;;;6.27;3.87;;;30.70;53.60;;;;;;5012980;28;20436;-49
2022/08/17 11:44:40;;;;;;;4.93;4.17;;;30.70;54.10;;;;;;5013706;28;20436;-49
2022/08/17 11:53:58;;;;;;;5.80;3.70;;;30.80;53.50;;;;;;5012607;28;20523;-50
2022/08/17 11:56:44;;;;;;;4.47;4.07;;;30.90;53.40;;;;;;5013236;28;20463;-49
2022/08/17 11:59:48;;;;;;;5.00;4.30;;;31.00;53.50;;;;;;5012666;28;20440;-48
2022/08/17 12:02:34;;;;;;;5.33;3.70;;;31.20;53.70;;;;;;5012596;28;20436;-49
2022/08/17 12:05:12;;;;;;;6.03;4.10;;;31.40;53.00;;;;;;5013229;28;20432;-49
2022/08/17 12:07:43;;;;;;;6.90;3.47;;;31.50;52.70;;;;;;5012960;28;20436;-49
2022/08/17 12:10:14;;;;;;;6.20;3.77;;;31.70;52.30;;;;;;5012269;28;20488;-51
2022/08/17 12:12:42;;;;;;;7.70;3.77;;;31.70;51.30;;;;;;5012446;28;20532;-50
2022/08/17 12:15:19;;;;;;;7.23;3.90;;;31.70;50.50;;;;;;5012561;28;20444;-50
2022/08/17 12:17:52;;;;;;;4.67;3.10;;;31.80;49.90;;;;;;5011489;28;20444;-49
2022/08/17 12:20:24;;;;;;;3.90;3.50;;;31.80;49.40;;;;;;5012155;28;20654;-49
2022/08/17 12:22:59;;;;;;;6.77;3.77;;;31.70;49.40;;;;;;5013129;28;20441;-49
2022/08/17 12:25:33;;;;;;;9.27;4.10;;;31.70;49.30;;;;;;5012862;28;20450;-49
2022/08/17 12:28:00;;;;;;;4.57;3.53;;;31.60;49.20;;;;;;5012781;28;20436;-50
2022/08/17 12:30:28;;;;;;;3.70;3.40;;;31.70;49.40;;;;;;5012522;28;20449;-50
2022/08/17 12:32:55;;;;;;;5.23;3.77;;;31.60;49.40;;;;;;5012579;28;20451;-49
2022/08/17 12:35:28;;;;;;;8.40;3.60;;;31.60;49.30;;;;;;5012729;28;20963;-50
2022/08/17 12:37:57;;;;;;;3.73;3.30;;;31.60;49.10;;;;;;5012590;28;20484;-49
2022/08/17 12:40:26;;;;;;;5.70;3.83;;;31.70;49.40;;;;;;5012337;28;20526;-51
2022/08/17 12:42:59;;;;;;;5.80;4.10;;;31.70;50.20;;;;;;5012703;28;20445;-49
2022/08/17 12:45:29;;;;;;;5.43;3.97;;;31.80;50.20;;;;;;5012585;28;20440;-50
2022/08/17 12:48:06;;;;;;;4.93;4.40;;;31.90;50.40;;;;;;5012307;28;20429;-50
2022/08/17 12:50:34;;;;;;;7.13;4.60;;;31.90;50.50;;;;;;5011723;28;20455;-50
2022/08/17 12:53:01;;;;;;;6.07;4.50;;;31.90;50.90;;;;;;5012422;28;20527;-50
2022/08/17 12:55:29;;;;;;;5.37;4.43;;;31.90;50.80;;;;;;5012376;28;20491;-50
2022/08/17 12:57:58;;;;;;;8.50;4.37;;;32.10;50.30;;;;;;5012368;28;20429;-49
2022/08/17 13:00:28;;;;;;;4.90;3.90;;;32.20;49.80;;;;;;5011228;28;20456;-50
2022/08/17 13:02:59;;;;;;;4.57;4.17;;;32.20;49.70;;;;;;5011959;28;20436;-50
2022/08/17 13:05:30;;;;;;;6.17;4.13;;;32.30;49.40;;;;;;5012106;28;20443;-50
2022/08/17 13:07:59;;;;;;;8.43;7.63;;;31.90;49.10;;;;;;5011940;28;20432;-51
2022/08/17 13:10:28;;;;;;;9.23;4.57;;;32.30;49.50;;;;;;5010751;28;20456;-49
2022/08/17 13:12:56;;;;;;;7.00;4.37;;;32.30;49.50;;;;;;5011916;28;20439;-50
2022/08/17 13:15:31;;;;;;;9.10;4.23;;;32.10;49.30;;;;;;5011872;28;20875;-50
2022/08/17 13:18:02;;;;;;;6.20;4.77;;;32.20;49.40;;;;;;5011846;28;20470;-50
2022/08/17 13:20:29;;;;;;;6.07;4.70;;;32.20;49.30;;;;;;5011367;28;20837;-50
2022/08/17 13:22:57;;;;;;;7.07;4.70;;;32.20;49.10;;;;;;5011439;28;20440;-49
2022/08/17 13:25:26;;;;;;;5.20;4.80;;;32.20;49.10;;;;;;5011601;28;20539;-50
2022/08/17 13:27:54;;;;;;;8.90;4.53;;;32.10;49.10;;;;;;5011719;28;20791;-50
2022/08/17 13:30:26;;;;;;;6.50;4.60;;;32.10;49.10;;;;;;5010878;28;20465;-49